Time;durP1;ratioP1;P1;durP2;ratioP2;P2;SDS_P1;SDS_P2;PMS_P1;PMS_P2;Temp;Humidity;BMP_temperature;BMP_pressure;BME280_temperature;BME280_humidity;BME280_pressure;Samples;Min_cycle;Max_cycle;Signal;HPM_P1;HPM_P2
2023/10/20 00:00:26;;;;;;;2.50;2.30;;;19.50;74.00;20.50;97817.00;;;;5073675;28;20502;-50
2023/10/20 00:02:52;;;;;;;2.10;2.00;;;19.40;73.80;20.50;97810.00;;;;5073101;28;20662;-49
2023/10/20 00:05:18;;;;;;;2.30;2.10;;;19.40;73.80;20.50;97807.00;;;;5070146;28;20203;-49
2023/10/20 00:07:43;;;;;;;2.30;2.10;;;19.40;73.70;20.50;97796.00;;;;5068371;28;20204;-51
2023/10/20 00:10:11;;;;;;;2.20;2.10;;;19.40;73.90;20.50;97809.00;;;;5069767;28;20189;-51
2023/10/20 00:12:38;;;;;;;2.37;2.20;;;19.40;73.90;20.40;97804.00;;;;5069572;28;20227;-50
2023/10/20 00:15:05;;;;;;;2.40;2.20;;;19.40;73.80;20.40;97785.00;;;;5072081;28;20184;-50
2023/10/20 00:17:30;;;;;;;2.30;2.20;;;19.40;73.80;20.40;97796.00;;;;5068047;28;20181;-50
2023/10/20 00:19:56;;;;;;;2.53;2.33;;;19.40;73.80;20.40;97800.00;;;;5069173;28;20228;-49
2023/10/20 00:22:22;;;;;;;2.60;2.40;;;19.40;73.80;20.40;97796.00;;;;5069171;28;20621;-50
2023/10/20 00:24:47;;;;;;;2.20;2.10;;;19.40;73.80;20.40;97789.00;;;;5068870;28;20187;-49
2023/10/20 00:27:13;;;;;;;2.40;2.20;;;19.30;73.60;20.40;97795.00;;;;5068990;28;20188;-50
2023/10/20 00:29:40;;;;;;;2.27;2.07;;;19.40;73.80;20.40;97800.00;;;;5050864;28;20638;-50
2023/10/20 00:32:07;;;;;;;2.53;2.33;;;19.40;73.90;20.40;97789.00;;;;5068802;28;20212;-49
2023/10/20 00:34:33;;;;;;;2.50;2.30;;;19.40;73.90;20.40;97787.00;;;;5068986;28;20193;-49
2023/10/20 00:36:59;;;;;;;2.40;2.20;;;19.40;73.90;20.40;97786.00;;;;5069177;28;20177;-50
2023/10/20 00:39:25;;;;;;;2.20;2.10;;;19.40;73.90;20.40;97779.00;;;;5068626;28;20178;-50
2023/10/20 00:41:50;;;;;;;2.10;2.00;;;19.30;73.80;20.40;97779.00;;;;5050831;28;20579;-50
2023/10/20 00:44:16;;;;;;;2.87;2.30;;;19.30;73.90;20.40;97768.00;;;;5068440;28;20211;-51
2023/10/20 00:46:45;;;;;;;2.37;2.20;;;19.30;73.80;20.40;97771.00;;;;5068423;28;20200;-50
2023/10/20 00:49:11;;;;;;;2.30;2.10;;;19.30;73.90;20.40;97760.00;;;;5066999;28;20215;-50
2023/10/20 00:51:37;;;;;;;2.50;2.30;;;19.30;73.90;20.40;97758.00;;;;5066610;28;20233;-50
2023/10/20 00:54:02;;;;;;;2.67;2.47;;;19.30;73.90;20.30;97751.00;;;;5067019;28;20212;-49
2023/10/20 00:56:29;;;;;;;2.20;2.10;;;19.30;73.90;20.30;97747.00;;;;5068539;28;20185;-50
2023/10/20 00:58:55;;;;;;;2.30;2.10;;;19.30;74.00;20.30;97718.00;;;;5067913;28;20197;-50
2023/10/20 01:01:21;;;;;;;2.40;2.20;;;19.30;73.90;20.30;97715.00;;;;5068363;28;20203;-50
2023/10/20 01:03:48;;;;;;;2.20;2.10;;;19.30;73.90;20.30;97701.00;;;;5068262;28;20193;-49
2023/10/20 01:06:14;;;;;;;2.30;2.20;;;19.30;73.90;20.30;97695.00;;;;5064674;28;20194;-49
2023/10/20 01:08:39;;;;;;;2.50;2.30;;;19.30;73.90;20.30;97692.00;;;;5063887;28;20255;-50
2023/10/20 01:11:05;;;;;;;2.63;2.30;;;19.30;73.90;20.30;97679.00;;;;5060800;28;20237;-50
2023/10/20 01:13:31;;;;;;;2.30;2.10;;;19.30;73.90;20.30;97682.00;;;;5068244;28;20192;-50
2023/10/20 01:15:57;;;;;;;2.40;2.20;;;19.30;73.90;20.30;97683.00;;;;5068094;28;20181;-50
2023/10/20 01:18:22;;;;;;;2.20;2.10;;;19.30;73.90;20.30;97684.00;;;;5068257;28;20247;-50
2023/10/20 01:20:48;;;;;;;2.07;1.97;;;19.20;73.80;20.30;97686.00;;;;5067718;28;20208;-50
2023/10/20 01:23:14;;;;;;;2.27;2.13;;;19.20;73.80;20.30;97692.00;;;;5068064;28;20182;-50
2023/10/20 01:25:40;;;;;;;2.10;2.00;;;19.30;74.00;20.30;97683.00;;;;5067914;28;20600;-49
2023/10/20 01:28:05;;;;;;;2.27;2.13;;;19.20;73.80;20.30;97685.00;;;;5066350;28;20185;-49
2023/10/20 01:30:31;;;;;;;2.33;2.13;;;19.20;73.90;20.30;97680.00;;;;5066427;28;20185;-50
2023/10/20 01:32:57;;;;;;;2.60;2.40;;;19.20;73.90;20.30;97684.00;;;;5066737;28;20216;-50
2023/10/20 01:35:23;;;;;;;1.97;1.87;;;19.20;73.90;20.30;97687.00;;;;5068136;28;20272;-50
2023/10/20 01:37:48;;;;;;;2.20;2.10;;;19.20;73.80;20.30;97678.00;;;;5068326;28;20185;-50
2023/10/20 01:40:14;;;;;;;2.20;2.10;;;19.20;74.60;20.30;97659.00;;;;5062488;28;20185;-50
2023/10/20 01:42:40;;;;;;;2.20;2.00;;;19.20;73.70;20.20;97657.00;;;;5065471;28;20208;-50
2023/10/20 01:45:07;;;;;;;2.30;2.20;;;19.20;73.80;20.20;97655.00;;;;5067562;28;20201;-50
2023/10/20 01:47:32;;;;;;;2.20;2.10;;;19.20;73.80;20.20;97663.00;;;;5067563;28;20580;-49
2023/10/20 01:49:59;;;;;;;2.20;2.10;;;19.20;73.80;20.20;97660.00;;;;5065935;28;20181;-49
2023/10/20 01:52:26;;;;;;;2.00;1.90;;;19.20;73.90;20.20;97665.00;;;;5049318;28;20359;-50
2023/10/20 01:54:52;;;;;;;2.17;2.07;;;19.20;73.80;20.20;97653.00;;;;5067437;28;20189;-49
2023/10/20 01:57:17;;;;;;;2.03;1.93;;;19.20;73.90;20.20;97649.00;;;;5067005;28;20188;-50
2023/10/20 01:59:43;;;;;;;2.33;2.20;;;19.20;73.80;20.20;97643.00;;;;5069063;28;20212;-49
2023/10/20 02:02:09;;;;;;;2.37;2.20;;;19.20;73.80;20.20;97644.00;;;;5068222;28;20255;-49
2023/10/20 02:04:35;;;;;;;2.47;2.27;;;19.10;73.80;20.20;97629.00;;;;5068029;28;20193;-49
2023/10/20 02:07:01;;;;;;;2.20;2.10;;;19.20;73.80;20.20;97629.00;;;;5068125;28;20185;-49
2023/10/20 02:09:27;;;;;;;2.40;2.20;;;19.20;73.80;20.20;97615.00;;;;5068520;28;20709;-53
2023/10/20 02:11:57;;;;;;;2.10;2.00;;;19.20;73.80;20.20;97616.00;;;;5072104;28;20242;-49
2023/10/20 02:14:25;;;;;;;2.27;2.10;;;19.10;73.80;20.20;97621.00;;;;5057588;28;20195;-49
2023/10/20 02:16:51;;;;;;;2.10;2.00;;;19.20;73.90;20.20;97612.00;;;;5062004;28;20620;-49
2023/10/20 02:19:17;;;;;;;2.20;2.10;;;19.20;73.80;20.20;97606.00;;;;5066136;28;20210;-49
2023/10/20 02:21:43;;;;;;;2.00;1.90;;;19.20;73.80;20.20;97610.00;;;;5061054;28;20202;-50
2023/10/20 02:24:08;;;;;;;2.47;2.27;;;19.10;73.80;20.20;97609.00;;;;5068715;28;20185;-50
2023/10/20 02:26:35;;;;;;;2.40;2.20;;;19.10;73.70;20.20;97595.00;;;;5067549;28;20185;-49
2023/10/20 02:29:01;;;;;;;1.80;1.70;;;19.10;73.70;20.20;97600.00;;;;5067063;28;20206;-50
2023/10/20 02:31:27;;;;;;;2.00;1.90;;;19.10;73.70;20.20;97590.00;;;;5067194;28;20213;-50
2023/10/20 02:33:52;;;;;;;2.10;2.00;;;19.10;73.80;20.10;97587.00;;;;5067464;28;20192;-50
2023/10/20 02:36:21;;;;;;;2.27;2.10;;;19.10;73.70;20.10;97587.00;;;;5065834;28;20182;-49
2023/10/20 02:38:51;;;;;;;2.20;2.10;;;19.10;73.70;20.20;97576.00;;;;5067084;28;20601;-49
2023/10/20 02:41:17;;;;;;;2.20;2.10;;;19.10;73.60;20.10;97566.00;;;;5068253;28;20201;-50
2023/10/20 02:43:43;;;;;;;2.07;1.97;;;19.10;73.70;20.10;97567.00;;;;5045696;28;20181;-49
2023/10/20 02:46:09;;;;;;;2.10;2.00;;;19.10;73.60;20.10;97555.00;;;;5064185;28;20658;-49
2023/10/20 02:48:35;;;;;;;2.10;2.00;;;19.10;73.70;20.10;97546.00;;;;5069967;28;20178;-50
2023/10/20 02:51:14;;;;;;;2.20;2.10;;;19.10;73.70;20.10;97537.00;;;;5071013;28;20582;-50
2023/10/20 02:53:40;;;;;;;2.00;1.90;;;19.00;74.40;20.10;97548.00;;;;5063068;28;20178;-49
2023/10/20 02:56:13;;;;;;;2.13;2.03;;;19.10;73.60;19.90;97527.00;;;;5056689;28;20199;-50
2023/10/20 02:58:39;;;;;;;2.33;2.13;;;19.10;73.60;20.10;97533.00;;;;5068737;28;20178;-49
2023/10/20 03:01:07;;;;;;;2.17;2.03;;;19.10;73.70;20.10;97528.00;;;;5058277;28;20211;-50
2023/10/20 03:03:33;;;;;;;1.93;1.83;;;19.10;73.70;20.10;97525.00;;;;5083723;28;20247;-50
2023/10/20 03:06:01;;;;;;;2.17;2.07;;;19.10;73.50;20.10;97512.00;;;;5070453;28;20183;-52
2023/10/20 03:08:30;;;;;;;2.13;1.77;;;19.10;73.50;20.10;97510.00;;;;5067985;28;20185;-50
2023/10/20 03:10:57;;;;;;;2.00;1.90;;;19.10;73.50;20.10;97499.00;;;;5065229;28;20199;-50
2023/10/20 03:13:23;;;;;;;2.00;1.90;;;19.10;73.50;20.10;97499.00;;;;5071315;28;20203;-50
2023/10/20 03:15:52;;;;;;;2.40;1.90;;;19.10;73.50;20.10;97474.00;;;;5071619;28;20663;-49
2023/10/20 03:18:19;;;;;;;2.00;1.90;;;19.10;73.40;20.10;97475.00;;;;5071589;28;20176;-49
2023/10/20 03:20:46;;;;;;;2.07;1.97;;;19.00;73.20;20.10;97452.00;;;;5071458;28;20181;-50
2023/10/20 03:23:13;;;;;;;2.17;1.90;;;19.00;73.30;20.10;97455.00;;;;5071428;28;20651;-49
2023/10/20 03:25:39;;;;;;;1.97;1.87;;;19.00;73.20;20.10;97446.00;;;;5071431;28;20199;-50
2023/10/20 03:28:06;;;;;;;1.90;1.80;;;19.10;73.30;20.10;97457.00;;;;5071322;28;20189;-50
2023/10/20 03:30:38;;;;;;;2.00;1.90;;;19.10;73.30;20.10;97464.00;;;;5071123;28;20197;-49
2023/10/20 03:33:08;;;;;;;2.10;2.00;;;19.10;73.30;20.10;97440.00;;;;5070058;28;20219;-50
2023/10/20 03:35:34;;;;;;;2.07;1.90;;;19.10;73.30;19.90;97444.00;;;;5069848;28;20178;-52
2023/10/20 03:38:00;;;;;;;1.70;1.60;;;19.10;73.40;20.10;97443.00;;;;5069628;28;20185;-49
2023/10/20 03:40:37;;;;;;;3.50;1.90;;;19.10;73.60;20.10;97447.00;;;;5070659;28;20252;-49
2023/10/20 03:43:08;;;;;;;2.20;2.00;;;19.00;75.40;20.10;97432.00;;;;5069580;28;20176;-49
2023/10/20 03:45:51;;;;;;;5.03;2.10;;;19.00;75.40;20.10;97432.00;;;;5070595;28;20193;-49
2023/10/20 03:48:19;;;;;;;3.87;2.30;;;19.00;77.00;20.00;97441.00;;;;5070813;28;20188;-48
2023/10/20 03:50:46;;;;;;;4.03;2.40;;;18.90;78.30;20.00;97442.00;;;;5070252;28;20189;-49
2023/10/20 03:53:18;;;;;;;2.20;2.10;;;18.90;78.80;20.00;97441.00;;;;5073113;28;20565;-49
2023/10/20 03:55:44;;;;;;;2.67;2.40;;;18.90;77.70;19.90;97408.00;;;;5071255;28;20277;-49
2023/10/20 03:58:11;;;;;;;3.07;2.50;;;18.80;78.60;19.90;97386.00;;;;5070953;28;20172;-48
2023/10/20 04:00:41;;;;;;;2.60;2.40;;;18.80;79.00;19.90;97395.00;;;;5070482;28;20174;-49
2023/10/20 04:03:08;;;;;;;2.30;2.10;;;18.80;79.20;19.90;97376.00;;;;5051436;28;20272;-48
2023/10/20 04:05:33;;;;;;;2.53;2.33;;;18.70;79.30;19.90;97396.00;;;;5051722;28;20190;-49
2023/10/20 04:07:59;;;;;;;2.40;2.20;;;18.70;80.10;19.80;97387.00;;;;5052529;28;20182;-49
2023/10/20 04:10:25;;;;;;;2.30;2.10;;;18.70;80.70;19.80;97381.00;;;;5050048;28;20246;-49
2023/10/20 04:12:52;;;;;;;3.00;2.20;;;18.70;79.70;19.90;97388.00;;;;5050239;28;20206;-49
2023/10/20 04:15:25;;;;;;;2.43;2.10;;;18.70;79.80;19.80;97368.00;;;;5050107;28;20235;-52
2023/10/20 04:17:54;;;;;;;2.20;2.10;;;18.70;79.90;19.80;97354.00;;;;5048992;28;20205;-49
2023/10/20 04:20:20;;;;;;;2.30;2.10;;;18.70;80.00;19.90;97357.00;;;;5048993;28;20182;-48
2023/10/20 04:22:50;;;;;;;5.60;2.30;;;18.70;80.00;19.80;97364.00;;;;5050071;28;20207;-49
2023/10/20 04:25:21;;;;;;;2.40;2.20;;;18.70;81.30;19.80;97361.00;;;;5049272;28;20225;-49
2023/10/20 04:56:00;;;;;;;2.37;2.00;;;18.60;81.40;19.70;97260.00;;;;5069657;28;20245;-49
2023/10/20 05:07:53;;;;;;;1.90;1.80;;;18.50;82.00;19.60;97203.00;;;;5068435;28;20188;-50
2023/10/20 05:10:19;;;;;;;1.80;1.70;;;18.40;82.00;19.60;97219.00;;;;5067610;28;20182;-49
2023/10/20 05:12:48;;;;;;;2.00;1.80;;;18.50;82.20;19.60;97212.00;;;;5068439;28;20580;-49
2023/10/20 05:15:14;;;;;;;2.20;1.80;;;18.40;82.10;19.60;97210.00;;;;5068786;28;20234;-48
2023/10/20 05:17:40;;;;;;;1.90;1.80;;;18.50;82.10;19.60;97202.00;;;;5068846;28;20179;-48
2023/10/20 05:20:09;;;;;;;1.90;1.80;;;18.50;82.10;19.60;97189.00;;;;5068694;28;20247;-49
2023/10/20 05:22:35;;;;;;;3.30;1.90;;;18.50;82.20;19.60;97204.00;;;;5068481;28;20201;-48
2023/10/20 05:25:04;;;;;;;2.10;1.90;;;18.50;82.20;19.70;97192.00;;;;5068554;28;20183;-48
2023/10/20 05:27:30;;;;;;;1.93;1.73;;;18.50;81.80;19.70;97191.00;;;;5067312;28;20190;-48
2023/10/20 05:29:56;;;;;;;3.37;2.40;;;18.50;81.70;19.70;97191.00;;;;5068572;28;20187;-48
2023/10/20 05:32:22;;;;;;;2.40;2.20;;;18.60;81.10;19.70;97184.00;;;;5067387;28;20209;-49
2023/10/20 05:34:47;;;;;;;2.17;1.97;;;18.60;81.00;19.70;97168.00;;;;5068119;28;20679;-50
2023/10/20 05:37:14;;;;;;;2.63;1.90;;;18.60;81.00;19.70;97162.00;;;;5067422;28;20178;-49
2023/10/20 05:39:40;;;;;;;2.13;1.90;;;18.60;80.50;19.70;97154.00;;;;5067240;28;20190;-48
2023/10/20 05:42:06;;;;;;;2.07;1.90;;;18.70;80.20;19.80;97163.00;;;;5068416;28;20250;-48
2023/10/20 05:44:32;;;;;;;5.60;2.00;;;18.70;80.20;19.80;97165.00;;;;5068665;28;20234;-48
2023/10/20 05:46:58;;;;;;;3.27;1.77;;;18.70;80.10;19.80;97158.00;;;;5069287;28;20332;-49
2023/10/20 05:49:24;;;;;;;2.10;1.90;;;18.70;80.00;19.80;97158.00;;;;5068690;28;20657;-49
2023/10/20 05:51:51;;;;;;;2.47;1.97;;;18.70;79.80;19.80;97170.00;;;;5068264;28;20508;-49
2023/10/20 05:54:20;;;;;;;4.93;2.00;;;18.70;79.80;19.80;97183.00;;;;5066517;28;20177;-49
2023/10/20 05:56:45;;;;;;;1.97;1.87;;;18.70;79.70;19.80;97185.00;;;;5066829;28;20627;-49
2023/10/20 05:59:11;;;;;;;1.90;1.80;;;18.70;79.60;19.80;97171.00;;;;5068173;28;20195;-49
2023/10/20 06:01:37;;;;;;;2.80;1.93;;;18.80;79.40;19.80;97159.00;;;;5066788;28;20280;-48
2023/10/20 06:04:08;;;;;;;2.20;2.00;;;18.70;79.30;19.80;97142.00;;;;5044148;28;20217;-48
2023/10/20 06:06:33;;;;;;;2.50;1.90;;;18.70;79.20;19.80;97130.00;;;;5067503;28;20273;-49
2023/10/20 06:08:59;;;;;;;1.90;1.80;;;18.70;79.00;19.80;97118.00;;;;5067770;28;20626;-49
2023/10/20 06:11:25;;;;;;;2.20;2.00;;;18.70;78.90;19.80;97126.00;;;;5067054;28;20710;-49
2023/10/20 06:13:50;;;;;;;2.10;1.97;;;18.80;79.00;19.80;97136.00;;;;5064166;28;20263;-48
2023/10/20 06:16:16;;;;;;;2.83;2.00;;;18.70;79.00;19.80;97130.00;;;;5065754;28;20170;-49
2023/10/20 06:18:42;;;;;;;2.00;1.90;;;18.80;78.80;19.80;97128.00;;;;5069184;28;20268;-48
2023/10/20 06:21:13;;;;;;;2.13;1.87;;;18.70;78.50;19.80;97126.00;;;;5072061;28;20224;-48
2023/10/20 06:23:40;;;;;;;2.07;1.87;;;18.70;78.60;19.80;97123.00;;;;5071709;28;20189;-48
2023/10/20 06:26:05;;;;;;;2.00;1.80;;;18.70;78.60;19.80;97114.00;;;;5069731;28;20536;-48
2023/10/20 06:28:31;;;;;;;1.80;1.70;;;18.70;78.50;19.80;97122.00;;;;5067998;28;20183;-48
2023/10/20 06:31:00;;;;;;;2.47;2.00;;;18.70;78.50;19.80;97132.00;;;;5071443;28;20200;-49
2023/10/20 06:33:36;;;;;;;1.90;1.80;;;18.70;78.40;19.80;97138.00;;;;5066233;28;20687;-48
2023/10/20 06:36:10;;;;;;;2.30;1.83;;;18.70;79.20;19.80;97146.00;;;;5055080;28;20182;-48
2023/10/20 06:38:44;;;;;;;2.00;1.80;;;18.70;78.40;19.80;97144.00;;;;5070931;28;20602;-48
2023/10/20 06:41:13;;;;;;;2.17;1.70;;;18.70;78.40;19.80;97159.00;;;;5071438;28;20876;-49
2023/10/20 06:43:42;;;;;;;2.07;1.97;;;18.70;78.40;19.80;97143.00;;;;5074191;28;20663;-49
2023/10/20 06:46:08;;;;;;;2.00;1.90;;;18.70;78.60;19.80;97136.00;;;;5062991;28;20196;-49
2023/10/20 06:48:34;;;;;;;2.10;1.90;;;18.70;78.50;19.80;97150.00;;;;5064775;28;20177;-49
2023/10/20 06:51:00;;;;;;;1.83;1.73;;;18.70;78.50;19.80;97133.00;;;;5071614;28;20663;-49
2023/10/20 06:53:25;;;;;;;2.03;1.93;;;18.70;78.20;19.80;97148.00;;;;5070302;28;20205;-49
2023/10/20 06:55:51;;;;;;;2.00;1.90;;;18.70;78.10;19.80;97126.00;;;;5071508;28;20185;-49
2023/10/20 06:58:20;;;;;;;1.90;1.80;;;18.70;78.10;19.80;97136.00;;;;5071903;28;20205;-49
2023/10/20 07:00:46;;;;;;;2.03;1.83;;;18.70;78.20;19.80;97129.00;;;;5071356;28;20632;-49
2023/10/20 07:03:12;;;;;;;1.83;1.73;;;18.70;78.20;19.80;97132.00;;;;5069850;28;20424;-49
2023/10/20 07:05:42;;;;;;;2.10;2.00;;;18.70;78.20;19.70;97129.00;;;;5071180;28;20201;-49
2023/10/20 07:08:08;;;;;;;1.77;1.67;;;18.70;78.00;19.80;97121.00;;;;5071452;28;20181;-49
2023/10/20 07:10:37;;;;;;;1.90;1.80;;;18.70;78.00;19.80;97130.00;;;;5071355;28;20660;-49
2023/10/20 07:13:12;;;;;;;1.90;1.80;;;18.70;78.00;19.80;97124.00;;;;5071185;28;20433;-49
2023/10/20 07:15:40;;;;;;;1.90;1.80;;;18.70;78.20;19.80;97127.00;;;;5061803;28;20185;-49
2023/10/20 07:18:06;;;;;;;2.73;1.90;;;18.70;78.00;19.80;97127.00;;;;5069927;28;20188;-49
2023/10/20 07:20:38;;;;;;;2.13;1.93;;;18.70;78.10;19.80;97113.00;;;;5071024;28;20178;-48
2023/10/20 07:23:07;;;;;;;2.00;1.90;;;18.70;78.00;19.80;97108.00;;;;5070880;28;20184;-48
2023/10/20 07:25:33;;;;;;;2.27;1.90;;;18.70;78.10;19.80;97113.00;;;;5067563;28;20181;-49
2023/10/20 07:27:59;;;;;;;2.10;1.90;;;18.70;78.10;19.80;97118.00;;;;5047294;28;20178;-49
2023/10/20 07:30:24;;;;;;;1.90;1.80;;;18.70;77.90;19.80;97112.00;;;;5054631;28;20891;-48
2023/10/20 07:32:51;;;;;;;2.40;2.20;;;18.70;77.90;19.80;97116.00;;;;5059563;28;20213;-48
2023/10/20 07:35:17;;;;;;;2.30;2.10;;;18.70;78.20;19.80;97116.00;;;;5070372;28;20189;-48
2023/10/20 07:37:43;;;;;;;2.30;2.10;;;18.70;78.20;19.80;97116.00;;;;5070580;28;20251;-48
2023/10/20 07:40:10;;;;;;;2.33;2.13;;;18.70;78.30;19.80;97116.00;;;;5069158;28;20270;-48
2023/10/20 07:42:38;;;;;;;1.97;1.87;;;18.70;78.20;19.80;97113.00;;;;5069770;28;20205;-49
2023/10/20 07:45:08;;;;;;;2.47;2.27;;;18.70;78.10;19.80;97113.00;;;;5063299;28;20196;-49
2023/10/20 07:47:34;;;;;;;2.40;2.30;;;18.70;78.20;19.80;97116.00;;;;5062706;28;20614;-48
2023/10/20 07:50:00;;;;;;;2.20;2.07;;;18.70;78.10;19.80;97110.00;;;;5070669;28;20265;-49
2023/10/20 07:52:26;;;;;;;2.40;2.20;;;18.70;78.50;19.80;97115.00;;;;5070091;28;20281;-49
2023/10/20 07:54:52;;;;;;;2.40;2.20;;;18.70;78.30;19.80;97114.00;;;;5067877;28;20180;-49
2023/10/20 07:57:20;;;;;;;2.10;2.00;;;18.70;78.30;19.80;97117.00;;;;5068500;28;20653;-47
2023/10/20 07:59:46;;;;;;;2.30;2.10;;;18.70;78.20;19.80;97120.00;;;;5069256;28;20239;-48
2023/10/20 08:02:12;;;;;;;2.10;2.00;;;18.70;78.40;19.80;97125.00;;;;5072674;28;20193;-48
2023/10/20 08:04:38;;;;;;;2.50;2.30;;;18.70;78.20;19.80;97122.00;;;;5068891;28;20185;-48
2023/10/20 08:07:04;;;;;;;2.23;2.10;;;18.70;78.20;19.80;97124.00;;;;5069323;28;20177;-49
2023/10/20 08:09:30;;;;;;;2.47;2.00;;;18.70;78.20;19.80;97130.00;;;;5052002;28;20186;-48
2023/10/20 08:11:56;;;;;;;2.30;2.10;;;18.70;78.10;19.80;97140.00;;;;5069540;28;20297;-48
2023/10/20 08:14:26;;;;;;;2.30;2.20;;;18.70;78.00;19.80;97142.00;;;;5069646;28;20766;-48
2023/10/20 08:16:52;;;;;;;2.50;2.30;;;18.70;78.50;19.80;97125.00;;;;5068367;28;20169;-48
2023/10/20 08:19:18;;;;;;;2.50;2.30;;;18.70;78.50;19.80;97127.00;;;;5069041;28;20186;-49
2023/10/20 08:21:43;;;;;;;2.67;2.47;;;18.70;78.50;19.80;97143.00;;;;5049164;28;20197;-48
2023/10/20 08:24:10;;;;;;;2.80;2.57;;;18.60;78.40;19.80;97151.00;;;;5068709;28;20182;-48
2023/10/20 08:26:36;;;;;;;2.57;2.37;;;18.70;78.50;19.80;97145.00;;;;5059892;28;20643;-48
2023/10/20 08:29:06;;;;;;;2.30;2.10;;;18.60;78.40;19.80;97138.00;;;;5069092;28;20183;-48
2023/10/20 08:31:31;;;;;;;2.33;2.20;;;18.60;78.10;19.70;97143.00;;;;5069186;28;20278;-48
2023/10/20 08:33:58;;;;;;;2.57;2.37;;;18.70;78.30;19.80;97141.00;;;;5067791;28;20174;-49
2023/10/20 08:36:24;;;;;;;2.33;2.17;;;18.60;78.40;19.80;97138.00;;;;5067348;28;20230;-48
2023/10/20 08:38:50;;;;;;;2.57;2.37;;;18.70;78.20;19.70;97145.00;;;;5067975;28;20171;-49
2023/10/20 08:41:24;;;;;;;2.63;2.40;;;18.70;78.40;19.70;97146.00;;;;5068013;28;20786;-48
2023/10/20 08:43:49;;;;;;;2.40;2.20;;;18.70;78.20;19.80;97142.00;;;;5067766;28;20688;-48
2023/10/20 08:46:16;;;;;;;2.40;2.20;;;18.70;78.40;19.80;97159.00;;;;5069160;28;20185;-48
2023/10/20 08:48:43;;;;;;;2.80;2.60;;;18.70;78.20;19.80;97149.00;;;;5067920;28;20169;-48
2023/10/20 08:51:12;;;;;;;2.60;2.40;;;18.70;78.80;19.70;97157.00;;;;5069036;28;20206;-47
2023/10/20 08:53:38;;;;;;;2.50;2.30;;;18.60;78.50;19.70;97147.00;;;;5068582;28;20287;-48
2023/10/20 08:56:05;;;;;;;2.60;2.40;;;18.70;78.50;19.70;97145.00;;;;5069015;28;20180;-48
2023/10/20 08:58:31;;;;;;;2.80;2.60;;;18.70;78.50;19.70;97152.00;;;;5069252;28;20228;-49
2023/10/20 09:00:57;;;;;;;2.70;2.50;;;18.60;78.40;19.40;97149.00;;;;5068886;28;20217;-48
2023/10/20 09:03:25;;;;;;;2.87;2.57;;;18.60;78.50;19.80;97148.00;;;;5068804;28;20190;-48
2023/10/20 09:06:07;;;;;;;4.07;2.50;;;18.70;78.60;19.80;97149.00;;;;5069177;28;20190;-48
2023/10/20 09:08:33;;;;;;;2.50;2.20;;;18.60;79.30;19.80;97144.00;;;;5067721;28;20189;-48
2023/10/20 09:10:59;;;;;;;4.13;2.27;;;18.60;78.70;19.80;97145.00;;;;5067339;28;20228;-49
2023/10/20 09:13:34;;;;;;;2.30;2.10;;;18.60;78.50;19.70;97140.00;;;;5073083;28;20228;-49
2023/10/20 09:16:10;;;;;;;2.97;2.33;;;18.70;78.60;19.80;97134.00;;;;5068630;28;20180;-49
2023/10/20 09:18:50;;;;;;;2.67;2.47;;;18.60;78.80;19.80;97141.00;;;;5068871;28;20187;-48
2023/10/20 09:21:18;;;;;;;5.17;2.83;;;18.60;78.90;19.80;97139.00;;;;5065781;28;20197;-49
2023/10/20 09:24:03;;;;;;;4.17;3.00;;;18.60;79.00;19.80;97139.00;;;;5068150;28;20219;-48
2023/10/20 09:26:33;;;;;;;3.30;2.60;;;18.60;79.30;19.70;97146.00;;;;5068475;28;20187;-48
2023/10/20 09:28:58;;;;;;;2.97;2.60;;;18.60;79.20;19.80;97149.00;;;;5068268;28;20280;-49
2023/10/20 09:31:25;;;;;;;2.93;2.50;;;18.60;79.50;19.70;97125.00;;;;5068476;28;20296;-49
2023/10/20 09:33:51;;;;;;;2.73;2.30;;;18.60;79.30;19.70;97145.00;;;;5066913;28;20176;-49
2023/10/20 09:36:17;;;;;;;2.33;2.10;;;18.50;78.90;19.70;97141.00;;;;5067349;28;20700;-49
2023/10/20 09:38:54;;;;;;;2.30;2.10;;;18.60;78.40;19.70;97140.00;;;;5055859;28;20178;-49
2023/10/20 09:41:27;;;;;;;2.50;2.30;;;18.60;78.30;19.70;97150.00;;;;5068436;28;20583;-50
2023/10/20 09:44:05;;;;;;;3.20;2.20;;;18.70;78.20;19.70;97155.00;;;;5074250;28;20184;-49
2023/10/20 09:46:36;;;;;;;2.40;2.20;;;18.70;78.10;19.80;97169.00;;;;5067723;28;20227;-50
2023/10/20 09:49:14;;;;;;;2.40;2.20;;;18.70;78.00;19.70;97148.00;;;;5066922;28;20243;-49
2023/10/20 09:51:43;;;;;;;2.20;2.00;;;18.60;77.80;19.70;97139.00;;;;5067007;28;20293;-49
2023/10/20 09:54:08;;;;;;;2.40;2.20;;;18.60;77.80;19.70;97151.00;;;;5066732;28;20183;-49
2023/10/20 09:56:34;;;;;;;3.40;2.27;;;18.60;77.70;19.70;97145.00;;;;5069960;28;20268;-49
2023/10/20 09:59:00;;;;;;;2.30;2.10;;;18.60;77.70;19.70;97153.00;;;;5072894;28;20177;-49
2023/10/20 10:01:26;;;;;;;2.50;2.13;;;18.60;77.70;19.70;97154.00;;;;5068380;28;20668;-49
2023/10/20 10:04:03;;;;;;;2.30;2.10;;;18.50;77.60;19.70;97152.00;;;;5066678;28;20177;-48
2023/10/20 10:06:35;;;;;;;2.40;2.13;;;18.60;77.60;19.70;97155.00;;;;5067030;28;20185;-50
2023/10/20 10:09:04;;;;;;;2.30;2.10;;;18.60;77.60;19.70;97168.00;;;;5066894;28;20179;-48
2023/10/20 10:11:31;;;;;;;2.13;2.00;;;18.60;77.50;19.70;97155.00;;;;5067865;28;20217;-48
2023/10/20 10:14:02;;;;;;;2.40;2.20;;;18.60;77.40;19.70;97141.00;;;;5064206;28;20212;-48
2023/10/20 10:16:28;;;;;;;2.57;2.20;;;18.60;77.40;19.70;97142.00;;;;5058518;28;20182;-49
2023/10/20 10:18:57;;;;;;;2.87;2.20;;;18.60;77.40;19.70;97139.00;;;;5062059;28;20182;-49
2023/10/20 10:21:29;;;;;;;2.30;2.10;;;18.60;77.30;19.70;97133.00;;;;5053248;28;20195;-49
2023/10/20 10:24:18;;;;;;;2.77;2.03;;;18.60;77.30;19.70;97138.00;;;;5064036;28;20173;-49
2023/10/20 10:27:06;;;;;;;2.33;2.13;;;18.60;77.30;19.70;97124.00;;;;5066940;28;20255;-49
2023/10/20 10:29:56;;;;;;;2.00;1.90;;;18.60;77.20;19.70;97123.00;;;;5068911;28;20170;-51
2023/10/20 10:32:22;;;;;;;4.00;2.23;;;18.60;77.30;19.70;97110.00;;;;5068690;28;20209;-49
2023/10/20 10:34:51;;;;;;;3.20;2.00;;;18.60;77.40;19.70;97111.00;;;;5070736;28;20200;-49
2023/10/20 10:37:27;;;;;;;2.23;2.10;;;18.60;77.30;19.70;97106.00;;;;5066866;28;20182;-49
2023/10/20 10:39:53;;;;;;;2.33;2.10;;;18.60;77.30;19.70;97099.00;;;;5060415;28;20194;-49
2023/10/20 10:42:19;;;;;;;5.03;2.10;;;18.60;77.30;19.70;97016.00;;;;5064236;28;20680;-49
2023/10/20 10:44:44;;;;;;;2.40;2.13;;;18.60;77.30;19.70;97092.00;;;;5066570;28;20532;-49
2023/10/20 10:47:19;;;;;;;1.93;1.83;;;18.60;77.30;19.70;97093.00;;;;5068261;28;20178;-49
2023/10/20 10:49:47;;;;;;;2.90;2.07;;;18.60;77.70;19.70;97087.00;;;;5066672;28;20180;-49
2023/10/20 10:52:12;;;;;;;3.00;2.30;;;18.70;77.80;19.70;97077.00;;;;5066569;28;20240;-49
2023/10/20 10:54:38;;;;;;;2.87;2.00;;;18.70;77.80;19.70;97089.00;;;;5067423;28;20222;-49
2023/10/20 10:57:05;;;;;;;2.87;2.23;;;18.70;78.00;19.70;97081.00;;;;5066837;28;20174;-49
2023/10/20 10:59:30;;;;;;;4.17;2.30;;;18.70;78.10;19.70;97072.00;;;;5066494;28;20178;-50
2023/10/20 11:01:57;;;;;;;2.43;2.20;;;18.70;78.40;19.70;97067.00;;;;5069750;28;20205;-49
2023/10/20 11:04:22;;;;;;;5.47;2.60;;;18.70;78.60;19.80;97069.00;;;;5069866;28;20259;-50
2023/10/20 11:06:48;;;;;;;5.30;2.87;;;18.70;78.80;19.80;97063.00;;;;5069814;28;20618;-47
2023/10/20 11:09:19;;;;;;;7.63;3.37;;;18.70;79.20;19.80;97055.00;;;;5070726;28;20551;-49
2023/10/20 11:11:47;;;;;;;10.13;5.77;;;18.70;79.60;19.80;97058.00;;;;5070171;28;20836;-50
2023/10/20 11:14:16;;;;;;;17.60;6.40;;;18.80;80.20;19.80;97046.00;;;;5070677;28;20209;-50
2023/10/20 11:16:42;;;;;;;18.23;6.63;;;18.80;80.50;19.80;97036.00;;;;5070990;28;20261;-49
2023/10/20 11:19:10;;;;;;;14.37;6.50;;;18.80;80.30;19.80;97034.00;;;;5071076;28;20314;-49
2023/10/20 11:21:51;;;;;;;15.43;6.90;;;18.80;80.50;19.80;97026.00;;;;5050489;28;20210;-50
2023/10/20 11:24:34;;;;;;;16.03;7.00;;;18.80;80.70;19.80;97020.00;;;;5060954;28;20177;-49
2023/10/20 11:27:01;;;;;;;13.90;6.83;;;18.80;81.20;19.80;97013.00;;;;5061795;28;20177;-50
2023/10/20 11:29:32;;;;;;;15.23;6.20;;;18.80;81.20;19.80;97009.00;;;;5069494;28;20242;-50
2023/10/20 11:32:00;;;;;;;11.40;6.27;;;18.90;81.50;19.80;97014.00;;;;5045474;28;20225;-48
2023/10/20 11:34:27;;;;;;;12.17;6.40;;;18.90;81.40;19.90;96955.00;;;;5062517;28;20183;-49